Time;durP1;ratioP1;P1;durP2;ratioP2;P2;SDS_P1;SDS_P2;PMS_P1;PMS_P2;Temp;Humidity;BMP_temperature;BMP_pressure;BME280_temperature;BME280_humidity;BME280_pressure;Samples;Min_cycle;Max_cycle;Signal;HPM_P1;HPM_P2
2023/03/26 00:00:47;;;;;;;9.93;1.65;;;;;;;;;;5047433;27;2129897;-62
2023/03/26 00:03:15;;;;;;;6.43;2.53;;;;;;;;;;5124949;28;20019;-61
2023/03/26 00:05:42;;;;;;;7.88;3.17;;;;;;;;;;5032124;27;20028;-63
2023/03/26 00:08:10;;;;;;;6.47;2.90;;;;;;;;;;5020488;28;20514;-64
2023/03/26 00:10:38;;;;;;;4.90;2.70;;;;;;;;;;5066711;28;20027;-63
2023/03/26 00:13:05;;;;;;;8.30;2.47;;;;;;;;;;5085472;28;20029;-63
2023/03/26 00:15:33;;;;;;;4.87;1.90;;;;;;;;;;5025811;28;20251;-63
2023/03/26 00:17:59;;;;;;;7.07;3.10;;;;;;;;;;5025569;28;20029;-63
2023/03/26 00:20:27;;;;;;;6.77;2.80;;;;;;;;;;5064154;28;20027;-63
2023/03/26 00:22:54;;;;;;;4.53;2.43;;;;;;;;;;5128739;28;20050;-62
2023/03/26 00:25:22;;;;;;;12.77;2.23;;;;;;;;;;5124799;27;20470;-62
2023/03/26 00:27:49;;;;;;;3.50;2.23;;;;;;;;;;5124800;27;20062;-63
2023/03/26 00:30:16;;;;;;;9.33;3.50;;;;;;;;;;5076518;27;20037;-63
2023/03/26 00:32:43;;;;;;;4.90;2.50;;;;;;;;;;5020673;28;20022;-61
2023/03/26 00:35:11;;;;;;;4.67;2.30;;;;;;;;;;5024134;28;20034;-62
2023/03/26 00:37:41;;;;;;;3.23;2.23;;;;;;;;;;5025693;28;20034;-62
2023/03/26 00:40:09;;;;;;;6.17;2.73;;;;;;;;;;5026039;28;20025;-62
2023/03/26 00:42:37;;;;;;;6.07;2.80;;;;;;;;;;5025295;28;20536;-62
2023/03/26 00:45:08;;;;;;;3.53;2.30;;;;;;;;;;5025225;28;20021;-62
2023/03/26 00:47:35;;;;;;;2.80;1.90;;;;;;;;;;5021056;28;20036;-62
2023/03/26 00:50:03;;;;;;;3.73;2.77;;;;;;;;;;5032317;28;20134;-63
2023/03/26 00:52:30;;;;;;;7.03;2.83;;;;;;;;;;5124251;27;20023;-62
2023/03/26 00:55:06;;;;;;;3.97;2.73;;;;;;;;;;5124053;27;20047;-63
2023/03/26 00:57:32;;;;;;;4.00;3.00;;;;;;;;;;5127802;27;20489;-62
2023/03/26 01:00:15;;;;;;;3.73;2.67;;;;;;;;;;5124141;27;20041;-62
2023/03/26 01:02:43;;;;;;;5.63;2.40;;;;;;;;;;5115464;28;20034;-62
2023/03/26 01:05:28;;;;;;;3.50;2.47;;;;;;;;;;5034581;28;20102;-62
2023/03/26 01:07:55;;;;;;;4.00;2.20;;;;;;;;;;5011235;28;20060;-62
2023/03/26 01:10:22;;;;;;;2.77;1.97;;;;;;;;;;5033821;28;20052;-62
2023/03/26 01:12:48;;;;;;;2.67;2.07;;;;;;;;;;5108956;28;20070;-61
2023/03/26 01:15:15;;;;;;;12.10;2.77;;;;;;;;;;5036040;28;20105;-61
2023/03/26 01:17:42;;;;;;;3.90;2.43;;;;;;;;;;5005928;28;20026;-61
2023/03/26 01:20:15;;;;;;;3.30;2.63;;;;;;;;;;5011021;28;20097;-61
2023/03/26 01:22:43;;;;;;;3.60;2.50;;;;;;;;;;5086145;28;20023;-61
2023/03/26 01:25:11;;;;;;;4.33;2.70;;;;;;;;;;5114667;28;20023;-61
2023/03/26 01:27:40;;;;;;;4.87;3.03;;;;;;;;;;5113694;28;20015;-61
2023/03/26 01:30:06;;;;;;;2.97;2.40;;;;;;;;;;5114829;28;20035;-61
2023/03/26 01:32:40;;;;;;;9.50;2.63;;;;;;;;;;5108824;28;20098;-62
2023/03/26 01:35:11;;;;;;;4.95;3.42;;;;;;;;;;5109501;28;20019;-61
2023/03/26 01:37:41;;;;;;;5.57;2.23;;;;;;;;;;5108021;28;20500;-61
2023/03/26 01:40:26;;;;;;;7.27;2.70;;;;;;;;;;5108997;28;20020;-61
2023/03/26 01:42:57;;;;;;;4.00;2.40;;;;;;;;;;5113511;28;20047;-61
2023/03/26 01:45:28;;;;;;;3.87;2.73;;;;;;;;;;5114900;28;20088;-61
2023/03/26 01:47:55;;;;;;;4.40;2.50;;;;;;;;;;5114224;28;20031;-61
2023/03/26 01:50:22;;;;;;;3.00;2.23;;;;;;;;;;5114335;28;20081;-61
2023/03/26 01:52:49;;;;;;;3.30;2.33;;;;;;;;;;5113629;28;20066;-61
2023/03/26 01:55:15;;;;;;;3.70;2.43;;;;;;;;;;5108673;28;20019;-61
2023/03/26 01:57:51;;;;;;;3.83;2.50;;;;;;;;;;5108545;28;20022;-61
2023/03/26 02:00:32;;;;;;;9.77;2.77;;;;;;;;;;5108847;28;20470;-61
2023/03/26 02:03:16;;;;;;;8.40;3.47;;;;;;;;;;5107896;28;20066;-61
2023/03/26 02:05:52;;;;;;;5.35;3.53;;;;;;;;;;5114587;28;20024;-61
2023/03/26 02:08:21;;;;;;;3.63;2.43;;;;;;;;;;5103908;28;20032;-61
2023/03/26 02:10:51;;;;;;;5.00;3.17;;;;;;;;;;5010807;28;20380;-61
2023/03/26 02:13:18;;;;;;;7.47;3.20;;;;;;;;;;5009849;28;20093;-61
2023/03/26 02:15:59;;;;;;;12.37;3.13;;;;;;;;;;5009641;28;20030;-61
2023/03/26 02:18:46;;;;;;;4.73;2.60;;;;;;;;;;5006039;28;20034;-61
2023/03/26 02:21:12;;;;;;;4.83;2.97;;;;;;;;;;5005336;28;20086;-61
2023/03/26 02:23:45;;;;;;;5.23;3.03;;;;;;;;;;5005162;28;20026;-61
2023/03/26 02:26:13;;;;;;;7.13;3.30;;;;;;;;;;5006951;28;20025;-61
2023/03/26 02:28:40;;;;;;;5.87;3.70;;;;;;;;;;5011199;28;20074;-61
2023/03/26 02:31:09;;;;;;;4.47;2.77;;;;;;;;;;5010781;28;20029;-61
2023/03/26 02:33:36;;;;;;;7.27;4.47;;;;;;;;;;5010668;28;20033;-61
2023/03/26 02:36:03;;;;;;;9.93;4.30;;;;;;;;;;5010678;28;20506;-61
2023/03/26 02:38:34;;;;;;;5.73;3.27;;;;;;;;;;5009042;28;20032;-61
2023/03/26 02:41:01;;;;;;;5.90;3.27;;;;;;;;;;5004907;28;20029;-61
2023/03/26 02:43:28;;;;;;;5.83;3.47;;;;;;;;;;5005413;28;20589;-61
2023/03/26 02:45:55;;;;;;;4.27;2.67;;;;;;;;;;5021293;28;20107;-61
2023/03/26 02:48:22;;;;;;;7.33;3.40;;;;;;;;;;5101693;28;20435;-61
2023/03/26 02:50:53;;;;;;;9.03;4.27;;;;;;;;;;5113457;28;20026;-60
2023/03/26 02:53:20;;;;;;;4.27;3.30;;;;;;;;;;5112071;28;20028;-61
2023/03/26 02:55:47;;;;;;;5.20;3.17;;;;;;;;;;5112889;28;20068;-61
2023/03/26 02:58:17;;;;;;;12.40;4.00;;;;;;;;;;5071140;28;20438;-61
2023/03/26 03:00:45;;;;;;;5.30;3.00;;;;;;;;;;5112035;28;20027;-60
2023/03/26 03:03:12;;;;;;;23.83;4.47;;;;;;;;;;5107679;28;20083;-61
2023/03/26 03:05:41;;;;;;;7.27;3.90;;;;;;;;;;5107897;28;20076;-61
2023/03/26 03:08:09;;;;;;;3.63;2.00;;;;;;;;;;5106861;28;20035;-61
2023/03/26 03:10:36;;;;;;;3.73;2.70;;;;;;;;;;5108144;28;20031;-60
2023/03/26 03:13:06;;;;;;;5.07;2.77;;;;;;;;;;5112876;28;20030;-60
2023/03/26 03:15:33;;;;;;;6.27;3.10;;;;;;;;;;5113117;28;20137;-60
2023/03/26 03:18:00;;;;;;;3.80;2.30;;;;;;;;;;5112076;28;20037;-61
2023/03/26 03:20:29;;;;;;;3.23;2.27;;;;;;;;;;5113145;28;20016;-60
2023/03/26 03:22:55;;;;;;;4.13;2.63;;;;;;;;;;5111749;28;20046;-61
2023/03/26 03:25:24;;;;;;;10.93;3.33;;;;;;;;;;5107635;28;20027;-61
2023/03/26 03:27:52;;;;;;;9.27;4.00;;;;;;;;;;5106225;28;20831;-61
2023/03/26 03:30:19;;;;;;;5.90;3.50;;;;;;;;;;5107521;28;20070;-61
2023/03/26 03:32:46;;;;;;;5.50;2.77;;;;;;;;;;5105987;28;20053;-61
2023/03/26 03:35:13;;;;;;;5.97;2.93;;;;;;;;;;5112924;28;20055;-61
2023/03/26 03:37:40;;;;;;;4.60;2.83;;;;;;;;;;5111914;28;20020;-60
2023/03/26 03:40:09;;;;;;;8.37;3.23;;;;;;;;;;5112805;28;20016;-61
2023/03/26 03:42:36;;;;;;;5.53;3.23;;;;;;;;;;5112800;28;20016;-61
2023/03/26 03:45:05;;;;;;;8.47;3.77;;;;;;;;;;5112229;28;20096;-60
2023/03/26 03:47:31;;;;;;;6.23;2.83;;;;;;;;;;5080588;28;20210;-61
2023/03/26 03:49:59;;;;;;;5.73;3.10;;;;;;;;;;5002919;28;20050;-60
2023/03/26 03:52:26;;;;;;;2.80;1.90;;;;;;;;;;5002932;28;20038;-61
2023/03/26 03:54:55;;;;;;;7.30;4.30;;;;;;;;;;5004234;28;20030;-60
2023/03/26 03:57:22;;;;;;;13.17;5.40;;;;;;;;;;5009588;28;20042;-60
2023/03/26 03:59:49;;;;;;;8.60;4.53;;;;;;;;;;5009672;28;20034;-60
2023/03/26 04:02:28;;;;;;;6.30;4.70;;;;;;;;;;5009113;28;20572;-61
2023/03/26 04:04:58;;;;;;;3.70;2.63;;;;;;;;;;5009388;28;20075;-61
2023/03/26 04:07:25;;;;;;;4.60;2.57;;;;;;;;;;5080251;28;20028;-60
2023/03/26 04:09:52;;;;;;;4.43;3.00;;;;;;;;;;5105500;28;20028;-61
2023/03/26 04:12:19;;;;;;;5.53;3.90;;;;;;;;;;5106900;28;20019;-61
2023/03/26 04:14:46;;;;;;;8.07;4.20;;;;;;;;;;5106970;28;20493;-60
2023/03/26 04:17:15;;;;;;;7.40;4.17;;;;;;;;;;5105550;28;20111;-61
2023/03/26 04:19:43;;;;;;;9.17;4.30;;;;;;;;;;5111916;28;20024;-60
2023/03/26 04:22:10;;;;;;;4.77;3.23;;;;;;;;;;5112293;28;20046;-60
2023/03/26 04:24:38;;;;;;;3.53;2.40;;;;;;;;;;5112184;28;20027;-61
2023/03/26 04:27:07;;;;;;;5.33;3.37;;;;;;;;;;5110012;28;20039;-60
2023/03/26 04:29:41;;;;;;;7.33;3.50;;;;;;;;;;5112194;28;20063;-60
2023/03/26 04:32:11;;;;;;;4.65;2.53;;;;;;;;;;5106533;28;20031;-60
2023/03/26 04:34:38;;;;;;;4.27;2.33;;;;;;;;;;5107009;28;20024;-60
2023/03/26 04:37:05;;;;;;;5.10;2.90;;;;;;;;;;5109412;28;20031;-60
2023/03/26 04:39:33;;;;;;;4.00;2.60;;;;;;;;;;5110496;28;20520;-60
2023/03/26 04:41:59;;;;;;;5.27;2.57;;;;;;;;;;5115091;28;20099;-60
2023/03/26 04:44:29;;;;;;;3.80;2.80;;;;;;;;;;5116192;28;20023;-60
2023/03/26 04:46:55;;;;;;;12.67;3.40;;;;;;;;;;5115062;28;20034;-60
2023/03/26 04:49:22;;;;;;;5.73;3.17;;;;;;;;;;5115356;28;20024;-60
2023/03/26 04:51:49;;;;;;;5.63;3.60;;;;;;;;;;5115920;28;20358;-60
2023/03/26 04:54:17;;;;;;;3.50;2.43;;;;;;;;;;5110881;28;20020;-60
2023/03/26 04:57:02;;;;;;;5.50;3.50;;;;;;;;;;5109477;28;20439;-60
2023/03/26 04:59:33;;;;;;;4.53;2.85;;;;;;;;;;5110133;28;20035;-60
2023/03/26 05:02:00;;;;;;;3.23;2.70;;;;;;;;;;5050065;28;20020;-60
2023/03/26 05:04:33;;;;;;;6.97;2.73;;;;;;;;;;5115037;28;20038;-60
2023/03/26 05:07:01;;;;;;;5.50;3.10;;;;;;;;;;5115624;28;20101;-60
2023/03/26 05:09:27;;;;;;;4.03;2.90;;;;;;;;;;5115280;27;20043;-60
2023/03/26 05:11:55;;;;;;;3.87;2.60;;;;;;;;;;5114443;28;20020;-60
2023/03/26 05:14:22;;;;;;;6.83;3.83;;;;;;;;;;5115615;28;20035;-60
2023/03/26 05:16:49;;;;;;;4.57;2.47;;;;;;;;;;5109646;28;20180;-61
2023/03/26 05:19:16;;;;;;;6.37;3.70;;;;;;;;;;5109863;27;20028;-60
2023/03/26 05:21:42;;;;;;;3.63;2.53;;;;;;;;;;5108952;28;20473;-60
2023/03/26 05:24:09;;;;;;;4.93;3.30;;;;;;;;;;5108482;28;20462;-60
2023/03/26 05:26:36;;;;;;;3.27;2.43;;;;;;;;;;5112725;28;20023;-60
2023/03/26 05:29:04;;;;;;;4.70;2.53;;;;;;;;;;5115223;28;20028;-60
2023/03/26 05:31:30;;;;;;;3.80;2.40;;;;;;;;;;5115085;28;20039;-60
2023/03/26 05:33:59;;;;;;;4.23;2.70;;;;;;;;;;5113983;28;20031;-60
2023/03/26 05:36:27;;;;;;;5.57;2.13;;;;;;;;;;5114901;28;20080;-60
2023/03/26 05:38:53;;;;;;;5.10;3.00;;;;;;;;;;5110170;28;20529;-60
2023/03/26 05:41:20;;;;;;;8.27;3.23;;;;;;;;;;5109588;28;20024;-60
2023/03/26 05:43:47;;;;;;;4.53;3.00;;;;;;;;;;5108408;28;20363;-60
2023/03/26 05:46:14;;;;;;;7.50;2.73;;;;;;;;;;5109220;28;20039;-60
2023/03/26 05:48:41;;;;;;;4.03;2.60;;;;;;;;;;5113075;28;20042;-60
2023/03/26 05:51:08;;;;;;;5.03;3.03;;;;;;;;;;5114469;28;20102;-61
2023/03/26 05:53:35;;;;;;;4.17;2.47;;;;;;;;;;5113425;28;20056;-60
2023/03/26 05:56:03;;;;;;;4.47;2.80;;;;;;;;;;5114725;28;20050;-60
2023/03/26 05:58:30;;;;;;;4.17;2.50;;;;;;;;;;5114801;28;20511;-60
2023/03/26 06:00:58;;;;;;;4.10;2.20;;;;;;;;;;5110524;28;20098;-61
2023/03/26 06:03:26;;;;;;;4.27;2.33;;;;;;;;;;5108021;28;20054;-61
2023/03/26 06:05:52;;;;;;;3.27;2.30;;;;;;;;;;5109066;28;20027;-60
2023/03/26 06:08:20;;;;;;;2.67;2.10;;;;;;;;;;5108801;28;20020;-60
2023/03/26 06:10:48;;;;;;;5.23;2.70;;;;;;;;;;5111468;28;20104;-61
2023/03/26 06:13:15;;;;;;;3.43;2.53;;;;;;;;;;5113444;28;20111;-60
2023/03/26 06:15:42;;;;;;;2.57;2.07;;;;;;;;;;5114352;28;20030;-61
2023/03/26 06:18:09;;;;;;;3.33;2.57;;;;;;;;;;5114083;28;20080;-60
2023/03/26 06:20:36;;;;;;;3.43;2.40;;;;;;;;;;5114078;28;20030;-61
2023/03/26 06:23:03;;;;;;;3.80;2.97;;;;;;;;;;5110052;28;20027;-60
2023/03/26 06:25:29;;;;;;;5.10;3.50;;;;;;;;;;5107092;28;20051;-60
2023/03/26 06:27:56;;;;;;;5.73;3.40;;;;;;;;;;5108125;28;20020;-60
2023/03/26 06:30:23;;;;;;;11.70;3.63;;;;;;;;;;5108291;28;20382;-61
2023/03/26 06:32:49;;;;;;;4.87;3.47;;;;;;;;;;5109636;28;20042;-60
2023/03/26 06:35:16;;;;;;;3.87;2.87;;;;;;;;;;5113825;28;20023;-60
2023/03/26 06:37:43;;;;;;;3.97;2.97;;;;;;;;;;5113808;27;20035;-60
2023/03/26 06:40:10;;;;;;;4.10;2.90;;;;;;;;;;5113669;27;20470;-60
2023/03/26 06:42:36;;;;;;;4.50;3.17;;;;;;;;;;5112499;28;20080;-60
2023/03/26 06:45:03;;;;;;;4.43;2.47;;;;;;;;;;5111032;28;20027;-60
2023/03/26 06:47:30;;;;;;;5.10;2.63;;;;;;;;;;5060637;28;20117;-60
2023/03/26 06:49:57;;;;;;;5.07;3.37;;;;;;;;;;5004938;28;20034;-60
2023/03/26 06:52:23;;;;;;;2.63;1.93;;;;;;;;;;5004994;28;20026;-61
2023/03/26 06:54:50;;;;;;;5.17;3.37;;;;;;;;;;5070239;28;20478;-60
2023/03/26 06:57:17;;;;;;;3.20;2.70;;;;;;;;;;5113347;28;20118;-60
2023/03/26 06:59:44;;;;;;;3.93;2.67;;;;;;;;;;5112718;28;20481;-60
2023/03/26 07:02:11;;;;;;;11.43;3.93;;;;;;;;;;5113013;28;20485;-60
2023/03/26 07:04:38;;;;;;;2.87;2.30;;;;;;;;;;5112326;28;20039;-60
2023/03/26 07:07:05;;;;;;;5.07;2.83;;;;;;;;;;5111654;28;20028;-60
2023/03/26 07:09:32;;;;;;;4.63;2.60;;;;;;;;;;5107682;28;20038;-60
2023/03/26 07:11:59;;;;;;;3.07;2.33;;;;;;;;;;5107716;28;20023;-60
2023/03/26 07:14:30;;;;;;;4.13;2.80;;;;;;;;;;5106545;28;20052;-60
2023/03/26 07:16:57;;;;;;;4.03;2.87;;;;;;;;;;5108265;28;20447;-60
2023/03/26 07:19:25;;;;;;;5.03;3.37;;;;;;;;;;5112639;28;20063;-60
2023/03/26 07:21:51;;;;;;;8.57;3.03;;;;;;;;;;5111688;28;20027;-60
2023/03/26 07:24:18;;;;;;;3.00;2.47;;;;;;;;;;5112078;28;20491;-60
2023/03/26 07:27:05;;;;;;;4.50;2.80;;;;;;;;;;5112861;28;20030;-60
2023/03/26 07:29:43;;;;;;;3.53;3.00;;;;;;;;;;5111033;28;20051;-60
2023/03/26 07:32:33;;;;;;;4.60;3.23;;;;;;;;;;5107412;28;20023;-60
2023/03/26 07:34:59;;;;;;;4.23;3.10;;;;;;;;;;5106301;28;20059;-60
2023/03/26 07:37:40;;;;;;;4.37;1.83;;;;;;;;;;5107313;28;20024;-60
2023/03/26 07:40:26;;;;;;;5.03;2.70;;;;;;;;;;5109996;28;20023;-60
2023/03/26 07:42:52;;;;;;;3.42;2.65;;;;;;;;;;5112836;28;20406;-60
2023/03/26 07:45:34;;;;;;;4.07;2.80;;;;;;;;;;5111791;28;20045;-60
2023/03/26 07:48:03;;;;;;;2.73;1.93;;;;;;;;;;5112145;28;20032;-61
2023/03/26 07:50:30;;;;;;;3.13;2.17;;;;;;;;;;5112469;28;20389;-60
2023/03/26 07:52:57;;;;;;;3.80;3.30;;;;;;;;;;5108269;28;20015;-60
2023/03/26 07:55:24;;;;;;;10.77;3.73;;;;;;;;;;5106219;28;20020;-60
2023/03/26 07:58:09;;;;;;;4.47;3.30;;;;;;;;;;5107124;28;20016;-60
2023/03/26 08:01:10;;;;;;;5.50;2.88;;;;;;;;;;5106767;28;20111;-60
2023/03/26 08:03:45;;;;;;;5.67;3.83;;;;;;;;;;5039875;28;20040;-60
2023/03/26 08:06:29;;;;;;;3.95;2.92;;;;;;;;;;4996468;28;20586;-60
2023/03/26 08:09:00;;;;;;;5.03;3.10;;;;;;;;;;4989559;28;20408;-60
2023/03/26 08:11:43;;;;;;;6.87;4.07;;;;;;;;;;4992196;28;20030;-60
2023/03/26 08:14:16;;;;;;;6.27;2.87;;;;;;;;;;5006310;28;20022;-60
2023/03/26 08:16:46;;;;;;;3.37;2.53;;;;;;;;;;5007264;28;20068;-60
2023/03/26 08:19:30;;;;;;;7.37;3.90;;;;;;;;;;5007390;28;20141;-60
2023/03/26 08:22:06;;;;;;;6.00;3.77;;;;;;;;;;5007460;28;20053;-60
2023/03/26 08:24:52;;;;;;;6.33;3.70;;;;;;;;;;5009998;28;20427;-60
2023/03/26 08:27:57;;;;;;;4.80;3.33;;;;;;;;;;5012643;28;20082;-60
2023/03/26 08:30:25;;;;;;;4.83;3.00;;;;;;;;;;5072879;28;20040;-60
2023/03/26 08:32:56;;;;;;;4.37;3.30;;;;;;;;;;5070124;28;20156;-60
2023/03/26 08:35:24;;;;;;;3.37;2.63;;;;;;;;;;5021849;28;20042;-60
2023/03/26 08:37:50;;;;;;;7.67;3.90;;;;;;;;;;4988136;28;20495;-60
2023/03/26 08:40:22;;;;;;;6.70;3.30;;;;;;;;;;5055930;28;20077;-60
2023/03/26 08:43:09;;;;;;;5.47;3.10;;;;;;;;;;5110546;28;20381;-60
2023/03/26 08:45:55;;;;;;;8.30;4.27;;;;;;;;;;5108964;28;20028;-60
2023/03/26 08:48:34;;;;;;;7.20;4.00;;;;;;;;;;5115786;28;20458;-60
2023/03/26 08:51:19;;;;;;;5.50;3.30;;;;;;;;;;5115024;28;20023;-60
2023/03/26 08:53:46;;;;;;;3.65;2.78;;;;;;;;;;5115853;28;20435;-60
2023/03/26 08:56:23;;;;;;;8.80;3.33;;;;;;;;;;5115732;28;20036;-60
2023/03/26 08:59:09;;;;;;;4.17;3.13;;;;;;;;;;5113557;28;20510;-60
2023/03/26 09:02:07;;;;;;;5.63;3.80;;;;;;;;;;5110211;28;20031;-60
2023/03/26 09:04:34;;;;;;;4.93;3.07;;;;;;;;;;5109813;28;20102;-60
2023/03/26 09:07:05;;;;;;;7.30;2.87;;;;;;;;;;5110314;28;20016;-60
2023/03/26 09:09:50;;;;;;;4.00;3.37;;;;;;;;;;5111897;28;20496;-60
2023/03/26 09:12:35;;;;;;;8.15;3.92;;;;;;;;;;5089723;28;20031;-60
2023/03/26 09:15:17;;;;;;;2.53;2.33;;;;;;;;;;4998093;28;20056;-60
2023/03/26 09:17:44;;;;;;;3.80;2.17;;;;;;;;;;5011608;28;20022;-60
2023/03/26 09:20:49;;;;;;;2.90;2.23;;;;;;;;;;5012275;28;20030;-60
2023/03/26 09:23:27;;;;;;;13.43;3.27;;;;;;;;;;5066491;28;20032;-60
2023/03/26 09:25:54;;;;;;;4.30;2.90;;;;;;;;;;5066576;28;20490;-60
2023/03/26 09:28:21;;;;;;;4.10;2.63;;;;;;;;;;5032462;28;20049;-60
2023/03/26 09:30:47;;;;;;;14.93;3.77;;;;;;;;;;5007046;28;20022;-60
2023/03/26 09:33:14;;;;;;;3.33;2.77;;;;;;;;;;5010246;28;20018;-60
2023/03/26 09:35:52;;;;;;;6.37;3.77;;;;;;;;;;5088084;28;20323;-60
2023/03/26 09:38:31;;;;;;;4.73;3.37;;;;;;;;;;5114053;28;20030;-60
2023/03/26 09:41:06;;;;;;;5.57;3.43;;;;;;;;;;5115052;28;20016;-60
2023/03/26 09:43:43;;;;;;;5.50;2.77;;;;;;;;;;5112973;28;20092;-60
2023/03/26 09:46:16;;;;;;;4.77;3.50;;;;;;;;;;5109280;27;20076;-60
2023/03/26 09:48:52;;;;;;;5.67;4.10;;;;;;;;;;5108264;28;20027;-60
2023/03/26 09:51:25;;;;;;;5.03;4.10;;;;;;;;;;5108972;28;20474;-60
2023/03/26 09:53:52;;;;;;;4.87;3.60;;;;;;;;;;5111432;28;20351;-60
2023/03/26 09:56:22;;;;;;;6.90;4.03;;;;;;;;;;5114633;28;20039;-60
2023/03/26 09:58:58;;;;;;;5.10;3.50;;;;;;;;;;5112339;28;20027;-60
2023/03/26 10:01:28;;;;;;;2.70;2.40;;;;;;;;;;5113071;28;20081;-60
2023/03/26 10:04:01;;;;;;;4.40;2.63;;;;;;;;;;5114432;28;20016;-60
2023/03/26 10:06:44;;;;;;;3.47;2.53;;;;;;;;;;5110323;28;20027;-61
2023/03/26 10:09:30;;;;;;;4.33;3.17;;;;;;;;;;5107394;28;20031;-60
2023/03/26 10:12:14;;;;;;;4.82;3.60;;;;;;;;;;5099064;28;20027;-60
2023/03/26 10:14:41;;;;;;;4.65;3.20;;;;;;;;;;5005677;28;20030;-60
2023/03/26 10:17:27;;;;;;;2.90;2.23;;;;;;;;;;5009829;28;20040;-60
2023/03/26 10:20:16;;;;;;;5.10;3.43;;;;;;;;;;5011099;28;20032;-60
2023/03/26 10:22:43;;;;;;;7.00;3.63;;;;;;;;;;5011339;28;20048;-59
2023/03/26 10:25:30;;;;;;;8.97;4.83;;;;;;;;;;5010535;28;20022;-59
2023/03/26 10:28:06;;;;;;;5.27;3.97;;;;;;;;;;5009365;28;20532;-60
2023/03/26 10:30:45;;;;;;;5.07;3.73;;;;;;;;;;5004008;28;20119;-60
2023/03/26 10:33:38;;;;;;;8.27;2.73;;;;;;;;;;5004537;28;20469;-60
2023/03/26 10:36:13;;;;;;;3.33;2.33;;;;;;;;;;5004919;28;20036;-60
2023/03/26 10:38:39;;;;;;;;;;;;;;;;;;5008342;28;20048;-60
2023/03/26 10:41:12;;;;;;;8.20;4.00;;;;;;;;;;5010460;28;19928;-60
2023/03/26 10:43:39;;;;;;;4.30;2.77;;;;;;;;;;5010868;28;20052;-59
2023/03/26 10:46:08;;;;;;;4.80;3.40;;;;;;;;;;5010445;28;20078;-60
2023/03/26 10:48:40;;;;;;;4.37;2.60;;;;;;;;;;5009782;28;20100;-60
2023/03/26 10:51:13;;;;;;;4.17;2.70;;;;;;;;;;5006129;28;20037;-59
2023/03/26 10:53:51;;;;;;;5.03;2.70;;;;;;;;;;5005695;28;20090;-60
2023/03/26 10:56:20;;;;;;;7.67;4.43;;;;;;;;;;5005050;28;20092;-60
2023/03/26 10:58:47;;;;;;;4.33;3.40;;;;;;;;;;5004901;28;20022;-61
2023/03/26 11:01:32;;;;;;;3.77;3.03;;;;;;;;;;5007635;28;20045;-60
2023/03/26 11:04:06;;;;;;;3.90;3.00;;;;;;;;;;5010809;28;20382;-60
2023/03/26 11:06:40;;;;;;;3.13;2.00;;;;;;;;;;5010201;28;20018;-60
2023/03/26 11:09:06;;;;;;;4.17;2.93;;;;;;;;;;5008878;28;20392;-60
2023/03/26 11:11:37;;;;;;;3.53;2.93;;;;;;;;;;5008939;28;20030;-60
2023/03/26 11:14:10;;;;;;;3.67;2.90;;;;;;;;;;5005919;28;20034;-60
2023/03/26 11:16:43;;;;;;;5.13;3.07;;;;;;;;;;5004769;28;20030;-61
2023/03/26 11:19:26;;;;;;;2.63;2.33;;;;;;;;;;5006629;28;20057;-60
2023/03/26 11:22:06;;;;;;;3.97;3.20;;;;;;;;;;5094604;28;20359;-60
2023/03/26 11:24:33;;;;;;;4.90;3.97;;;;;;;;;;5112966;28;20024;-60
2023/03/26 11:27:18;;;;;;;7.53;3.90;;;;;;;;;;5112982;28;20531;-60
2023/03/26 11:29:48;;;;;;;3.75;2.83;;;;;;;;;;5112370;28;20028;-60
2023/03/26 11:32:21;;;;;;;7.07;3.37;;;;;;;;;;5112146;28;20489;-60
2023/03/26 11:35:07;;;;;;;4.73;3.63;;;;;;;;;;5111494;28;20026;-60
2023/03/26 11:37:33;;;;;;;5.03;3.47;;;;;;;;;;5107356;28;20485;-60
2023/03/26 11:40:05;;;;;;;5.10;3.60;;;;;;;;;;5105920;28;20020;-60
2023/03/26 11:42:32;;;;;;;4.63;3.50;;;;;;;;;;5107377;28;20039;-61
2023/03/26 11:45:00;;;;;;;5.77;3.70;;;;;;;;;;5108426;28;20131;-60
2023/03/26 11:47:46;;;;;;;4.60;3.80;;;;;;;;;;5112679;28;20087;-60
2023/03/26 11:50:12;;;;;;;;;;;;;;;;;;5103246;28;20489;-60
2023/03/26 11:52:39;;;;;;;5.77;4.03;;;;;;;;;;5009483;28;20004;-60
2023/03/26 11:55:06;;;;;;;4.67;3.57;;;;;;;;;;5009470;28;20068;-59
2023/03/26 11:57:34;;;;;;;4.90;3.47;;;;;;;;;;5007191;28;20271;-60
2023/03/26 12:00:15;;;;;;;4.53;3.53;;;;;;;;;;5004166;28;20064;-60
2023/03/26 12:02:42;;;;;;;2.70;2.13;;;;;;;;;;5003850;28;20439;-60
2023/03/26 12:05:15;;;;;;;6.17;3.50;;;;;;;;;;5009050;28;20033;-60
2023/03/26 12:08:00;;;;;;;5.93;4.13;;;;;;;;;;5069832;28;20135;-60
2023/03/26 12:10:36;;;;;;;5.37;3.97;;;;;;;;;;5112258;28;20034;-60
2023/03/26 12:13:18;;;;;;;3.87;3.10;;;;;;;;;;5112453;28;20027;-60
2023/03/26 12:15:45;;;;;;;3.43;2.50;;;;;;;;;;5111300;28;20107;-60
2023/03/26 12:18:23;;;;;;;5.80;4.17;;;;;;;;;;5112561;28;20059;-60
2023/03/26 12:21:02;;;;;;;3.63;2.87;;;;;;;;;;5107700;28;20081;-60
2023/03/26 12:23:36;;;;;;;6.07;3.77;;;;;;;;;;5106472;28;20034;-60
2023/03/26 12:26:26;;;;;;;5.32;3.53;;;;;;;;;;5103905;28;20470;-61
2023/03/26 12:28:53;;;;;;;5.23;3.17;;;;;;;;;;5106534;28;20031;-60
2023/03/26 12:31:19;;;;;;;7.43;2.63;;;;;;;;;;5112162;28;20263;-60
2023/03/26 12:34:03;;;;;;;4.57;3.40;;;;;;;;;;5111990;28;20024;-60
2023/03/26 12:36:32;;;;;;;5.97;3.33;;;;;;;;;;5111309;28;20020;-60
2023/03/26 12:38:58;;;;;;;5.80;4.07;;;;;;;;;;5112036;28;20444;-60
2023/03/26 12:41:36;;;;;;;4.13;3.40;;;;;;;;;;5111160;28;20034;-60
2023/03/26 12:44:35;;;;;;;4.73;3.50;;;;;;;;;;5105033;28;20517;-60
2023/03/26 12:47:20;;;;;;;8.17;4.10;;;;;;;;;;4999038;28;20034;-60
2023/03/26 12:49:48;;;;;;;5.57;4.10;;;;;;;;;;4983825;28;20066;-60
2023/03/26 12:52:24;;;;;;;4.90;3.63;;;;;;;;;;4985864;28;20023;-60
2023/03/26 12:54:51;;;;;;;12.47;3.93;;;;;;;;;;4989169;28;20256;-59
2023/03/26 12:57:25;;;;;;;7.80;4.03;;;;;;;;;;5005787;28;20026;-60
2023/03/26 13:00:08;;;;;;;3.83;3.35;;;;;;;;;;5011813;28;20044;-60
2023/03/26 13:02:52;;;;;;;3.93;2.43;;;;;;;;;;5011940;28;20032;-59
2023/03/26 13:05:38;;;;;;;3.80;2.83;;;;;;;;;;5059970;28;20035;-60
2023/03/26 13:08:05;;;;;;;3.13;2.70;;;;;;;;;;5110133;28;20027;-60
2023/03/26 13:10:48;;;;;;;3.63;2.40;;;;;;;;;;5110053;28;20315;-60
2023/03/26 13:13:15;;;;;;;6.27;4.53;;;;;;;;;;5109977;28;20286;-60
2023/03/26 13:15:48;;;;;;;5.83;3.90;;;;;;;;;;5053043;28;20259;-60
2023/03/26 13:18:33;;;;;;;12.27;4.97;;;;;;;;;;5013509;28;20026;-60
2023/03/26 13:21:18;;;;;;;6.85;4.18;;;;;;;;;;5011838;28;20029;-60
2023/03/26 13:24:06;;;;;;;6.97;5.05;;;;;;;;;;5011515;28;20041;-60
2023/03/26 13:26:46;;;;;;;7.83;4.37;;;;;;;;;;5016972;28;20068;-60
2023/03/26 13:29:16;;;;;;;5.53;4.13;;;;;;;;;;5070265;28;20117;-60
2023/03/26 13:31:49;;;;;;;3.70;3.20;;;;;;;;;;5022143;28;20041;-60
2023/03/26 13:34:19;;;;;;;4.73;3.33;;;;;;;;;;5006154;28;20073;-61
2023/03/26 13:36:48;;;;;;;4.00;3.07;;;;;;;;;;5008123;28;20022;-60
2023/03/26 13:39:20;;;;;;;5.17;3.43;;;;;;;;;;5011383;28;20079;-60
2023/03/26 13:41:46;;;;;;;10.97;3.93;;;;;;;;;;5011956;28;20114;-60
2023/03/26 13:44:16;;;;;;;5.23;3.50;;;;;;;;;;5011453;28;20065;-60
2023/03/26 13:46:45;;;;;;;4.53;3.17;;;;;;;;;;5009967;28;20026;-60
2023/03/26 13:49:14;;;;;;;5.63;3.53;;;;;;;;;;5008338;28;20827;-61
2023/03/26 13:51:53;;;;;;;6.83;4.20;;;;;;;;;;5006248;28;20537;-60
2023/03/26 13:54:23;;;;;;;3.97;3.00;;;;;;;;;;5005872;28;20030;-61
2023/03/26 13:56:52;;;;;;;6.60;2.43;;;;;;;;;;5005735;28;20030;-61
2023/03/26 13:59:39;;;;;;;4.37;2.77;;;;;;;;;;5008641;28;20050;-60
2023/03/26 14:02:10;;;;;;;5.83;4.37;;;;;;;;;;5011363;28;20037;-61
2023/03/26 14:04:39;;;;;;;6.47;3.37;;;;;;;;;;5011054;28;20047;-60
2023/03/26 14:07:06;;;;;;;4.00;3.00;;;;;;;;;;5010831;28;20101;-61
2023/03/26 14:09:42;;;;;;;7.90;4.03;;;;;;;;;;5010715;28;20045;-61
2023/03/26 14:12:09;;;;;;;9.17;4.43;;;;;;;;;;5007140;28;20029;-61
2023/03/26 14:14:36;;;;;;;5.37;3.67;;;;;;;;;;5005574;28;20451;-62
2023/03/26 14:17:16;;;;;;;6.53;3.40;;;;;;;;;;5005331;28;20045;-61
2023/03/26 14:20:01;;;;;;;4.90;3.40;;;;;;;;;;5004986;28;20027;-60
2023/03/26 14:22:27;;;;;;;4.03;2.88;;;;;;;;;;5010640;28;20119;-61
2023/03/26 14:24:54;;;;;;;5.67;3.07;;;;;;;;;;5010752;28;20468;-61
2023/03/26 14:27:56;;;;;;;5.80;3.77;;;;;;;;;;5010568;28;20480;-61
2023/03/26 14:30:26;;;;;;;3.93;3.07;;;;;;;;;;5070153;28;20028;-61
2023/03/26 14:33:03;;;;;;;4.00;2.80;;;;;;;;;;5090025;28;20047;-61
2023/03/26 14:35:42;;;;;;;5.63;3.17;;;;;;;;;;5108273;28;20112;-61
2023/03/26 14:38:33;;;;;;;6.37;4.37;;;;;;;;;;5108383;28;20385;-61
2023/03/26 14:41:09;;;;;;;5.37;3.57;;;;;;;;;;5079401;28;20022;-61
2023/03/26 14:43:36;;;;;;;6.67;3.03;;;;;;;;;;5007198;28;20029;-61
2023/03/26 14:46:15;;;;;;;7.10;4.33;;;;;;;;;;5010299;28;20022;-61
2023/03/26 14:48:49;;;;;;;4.13;3.00;;;;;;;;;;5009081;28;20108;-62
2023/03/26 14:51:22;;;;;;;5.70;3.30;;;;;;;;;;5010965;28;20014;-61
2023/03/26 14:53:50;;;;;;;6.60;3.77;;;;;;;;;;5010358;28;20022;-61
2023/03/26 14:56:17;;;;;;;4.43;3.27;;;;;;;;;;5006812;28;20105;-61
2023/03/26 14:58:47;;;;;;;8.10;5.03;;;;;;;;;;5004693;28;20037;-61
2023/03/26 15:01:13;;;;;;;9.03;4.80;;;;;;;;;;5005220;28;20029;-61
2023/03/26 15:03:58;;;;;;;5.57;3.73;;;;;;;;;;5004639;28;20125;-61
2023/03/26 15:06:24;;;;;;;22.00;4.93;;;;;;;;;;5025211;28;20035;-62
2023/03/26 15:08:54;;;;;;;6.67;3.73;;;;;;;;;;5113046;28;20023;-62
2023/03/26 15:11:27;;;;;;;7.70;4.07;;;;;;;;;;5113293;28;20015;-61